KVPZ/VPZ METAR and TAF weather

Enter ICAO airport designator
Station Type Date Time Source
KVPZ METAR 2020/06/03 21:56 UTC NOAA

KVPZ 032156Z AUTO 24003KT 10SM SCT100 27/13 A2982 RMK AO2 SLP091 T02720128


Station Type Date Time Source
KVPZ Decoded METAR 2020/06/03 21:56 UTC NOAA

VALPARAISO PORTER CO MUNI, IN, United States (KVPZ) 41-27N 087-00W 231M
Jun 03, 2020 - 05:56 PM EDT / 2020.06.03 2156 UTC
Wind: from the WSW (240 degrees) at 3 MPH (3 KT):0
Visibility: 10 mile(s):0
Sky conditions: partly cloudy
Temperature: 81.0 F (27.2 C)
Dew Point: 55.0 F (12.8 C)
Relative Humidity: 40%
Pressure (altimeter): 29.82 in. Hg (1009 hPa)
ob: KVPZ 032156Z AUTO 24003KT 10SM SCT100 27/13 A2982 RMK AO2 SLP091 T02720128
cycle: 22

Station Type Date Time Source
KVPZ TAF UTC NOAA

Error!

Example: see airport list